Time;durP1;ratioP1;P1;durP2;ratioP2;P2;SDS_P1;SDS_P2;PMS_P1;PMS_P2;Temp;Humidity;BMP_temperature;BMP_pressure;BME280_temperature;BME280_humidity;BME280_pressure;Samples;Min_cycle;Max_cycle;Signal;HPM_P1;HPM_P2
2024/02/12 00:00:19;;;;;;;73.07;29.83;;;;;;;;;;6203949;23;20028;-71
2024/02/12 00:02:46;;;;;;;45.20;18.30;;;;;;;;;;6202559;23;20081;-70
2024/02/12 00:05:13;;;;;;;29.85;12.77;;;;;;;;;;6224525;23;20538;-70
2024/02/12 00:07:40;;;;;;;15.68;7.93;;;;;;;;;;6184775;23;20044;-70
2024/02/12 00:10:10;;;;;;;17.73;6.35;;;;;;;;;;6204333;23;20073;-70
2024/02/12 00:12:40;;;;;;;16.05;6.65;;;;;;;;;;6201174;23;20020;-70
2024/02/12 00:15:11;;;;;;;18.30;5.53;;;;;;;;;;6203734;23;20047;-71
2024/02/12 00:17:39;;;;;;;13.73;5.47;;;;;;;;;;6186044;23;20027;-70
2024/02/12 00:20:10;;;;;;;14.93;5.78;;;;;;;;;;6226119;22;20032;-70
2024/02/12 00:22:39;;;;;;;15.30;5.80;;;;;;;;;;6195858;23;20034;-71
2024/02/12 00:25:07;;;;;;;14.43;5.57;;;;;;;;;;6194957;23;20074;-71
2024/02/12 00:27:34;;;;;;;12.90;5.65;;;;;;;;;;6174005;23;20095;-69
2024/02/12 00:30:04;;;;;;;14.60;5.97;;;;;;;;;;6193255;23;20074;-71
2024/02/12 00:32:32;;;;;;;14.35;5.65;;;;;;;;;;6196158;23;20048;-71
2024/02/12 00:34:59;;;;;;;16.95;6.15;;;;;;;;;;6197991;23;20228;-69
2024/02/12 00:37:26;;;;;;;15.52;5.53;;;;;;;;;;6158238;23;20063;-69
2024/02/12 00:39:53;;;;;;;13.90;5.80;;;;;;;;;;6187428;23;20035;-70
2024/02/12 00:42:21;;;;;;;21.83;7.35;;;;;;;;;;6193989;23;20048;-69
2024/02/12 00:44:49;;;;;;;17.30;6.45;;;;;;;;;;6196218;23;20020;-70
2024/02/12 00:47:17;;;;;;;16.88;7.13;;;;;;;;;;6188035;23;20082;-69
2024/02/12 00:49:44;;;;;;;14.65;6.43;;;;;;;;;;6195563;23;20024;-70
2024/02/12 00:52:10;;;;;;;15.02;6.65;;;;;;;;;;6195642;23;20024;-70
2024/02/12 00:54:40;;;;;;;15.70;6.22;;;;;;;;;;6196190;23;20095;-70
2024/02/12 00:57:07;;;;;;;18.63;6.97;;;;;;;;;;6140202;23;20036;-69
2024/02/12 00:59:34;;;;;;;14.07;6.50;;;;;;;;;;6190080;23;20024;-70
2024/02/12 01:02:04;;;;;;;15.57;6.95;;;;;;;;;;6196565;23;20056;-70
2024/02/12 01:04:32;;;;;;;15.45;7.15;;;;;;;;;;6198330;23;20020;-71
2024/02/12 01:06:59;;;;;;;15.40;6.50;;;;;;;;;;6187835;23;20205;-72
2024/02/12 01:09:27;;;;;;;17.52;7.05;;;;;;;;;;6192154;23;20226;-71
2024/02/12 01:11:55;;;;;;;17.08;7.25;;;;;;;;;;6194977;23;20058;-72
2024/02/12 01:14:23;;;;;;;21.23;7.45;;;;;;;;;;6197741;23;20021;-70
2024/02/12 01:16:50;;;;;;;16.38;6.57;;;;;;;;;;6159196;23;20058;-72
2024/02/12 01:19:18;;;;;;;19.85;7.38;;;;;;;;;;6192894;23;20159;-72
2024/02/12 01:21:46;;;;;;;15.55;6.10;;;;;;;;;;6218811;22;20107;-70
2024/02/12 01:24:14;;;;;;;14.43;6.32;;;;;;;;;;6197838;23;20024;-71
2024/02/12 01:26:47;;;;;;;17.10;6.50;;;;;;;;;;6170990;23;20090;-72
2024/02/12 01:29:14;;;;;;;13.60;5.25;;;;;;;;;;6189060;23;20054;-73
2024/02/12 01:31:41;;;;;;;12.65;6.00;;;;;;;;;;6190481;23;20025;-71
2024/02/12 01:34:07;;;;;;;19.80;7.63;;;;;;;;;;6193287;23;20020;-70
2024/02/12 01:36:36;;;;;;;18.85;6.65;;;;;;;;;;6147817;23;20048;-71
2024/02/12 01:39:07;;;;;;;;;;;;;;;;;;6162434;23;20028;-71
2024/02/12 01:41:42;;;;;;;17.48;5.93;;;;;;;;;;6195141;23;19924;-71
2024/02/12 01:44:09;;;;;;;19.38;6.65;;;;;;;;;;6193604;23;20020;-70
2024/02/12 01:46:36;;;;;;;19.60;7.35;;;;;;;;;;6177360;23;20032;-69
2024/02/12 01:49:03;;;;;;;17.42;7.13;;;;;;;;;;6181743;23;20030;-70
2024/02/12 01:51:30;;;;;;;18.33;6.72;;;;;;;;;;6192073;23;20224;-68
2024/02/12 01:53:59;;;;;;;14.52;6.18;;;;;;;;;;6195946;23;20024;-68
2024/02/12 01:56:30;;;;;;;14.60;6.25;;;;;;;;;;6191304;23;20020;-68
2024/02/12 01:58:59;;;;;;;19.25;6.65;;;;;;;;;;6192301;23;20223;-69
2024/02/12 02:01:25;;;;;;;18.33;7.32;;;;;;;;;;6189943;23;20021;-69
2024/02/12 02:03:52;;;;;;;18.02;6.75;;;;;;;;;;6196735;23;20021;-68
2024/02/12 02:06:19;;;;;;;20.13;7.57;;;;;;;;;;6191399;23;20028;-68
2024/02/12 02:08:46;;;;;;;17.33;7.18;;;;;;;;;;6194302;23;20063;-69
2024/02/12 02:11:15;;;;;;;22.27;7.53;;;;;;;;;;6192618;23;20020;-69
2024/02/12 02:13:44;;;;;;;16.85;6.82;;;;;;;;;;6196375;23;20275;-67
2024/02/12 02:16:11;;;;;;;17.10;7.13;;;;;;;;;;6191888;23;20032;-69
2024/02/12 02:18:39;;;;;;;17.38;7.25;;;;;;;;;;6192894;23;20100;-68
2024/02/12 02:21:12;;;;;;;19.80;7.20;;;;;;;;;;6196805;22;20107;-69
2024/02/12 02:23:40;;;;;;;23.15;7.13;;;;;;;;;;6217880;22;20020;-68
2024/02/12 02:26:08;;;;;;;18.25;6.68;;;;;;;;;;6218728;23;20032;-70
2024/02/12 02:28:37;;;;;;;;;;;;;;;;;;6154023;23;20094;-69
2024/02/12 02:31:04;;;;;;;17.25;5.97;;;;;;;;;;6196706;23;19951;-69
2024/02/12 02:33:31;;;;;;;26.52;7.90;;;;;;;;;;6187241;23;20156;-69
2024/02/12 02:35:58;;;;;;;20.73;7.57;;;;;;;;;;6193864;23;20113;-70
2024/02/12 02:38:27;;;;;;;19.08;7.68;;;;;;;;;;6189498;23;20032;-69
2024/02/12 02:40:54;;;;;;;18.15;6.97;;;;;;;;;;6193482;23;20021;-69
2024/02/12 02:43:23;;;;;;;21.52;7.45;;;;;;;;;;6186377;23;20082;-68
2024/02/12 02:45:51;;;;;;;24.75;7.55;;;;;;;;;;6192608;23;20190;-68
2024/02/12 02:48:19;;;;;;;18.97;7.27;;;;;;;;;;6177188;23;20071;-69
2024/02/12 02:50:45;;;;;;;16.30;6.72;;;;;;;;;;6194673;23;20318;-69
2024/02/12 02:53:13;;;;;;;21.70;7.95;;;;;;;;;;6189104;22;20021;-70
2024/02/12 02:55:40;;;;;;;20.37;6.93;;;;;;;;;;6192467;23;21045;-68
2024/02/12 02:58:10;;;;;;;21.17;7.43;;;;;;;;;;6166655;23;20024;-69
2024/02/12 03:00:38;;;;;;;17.05;6.97;;;;;;;;;;6215940;22;20024;-68
2024/02/12 03:03:08;;;;;;;17.33;7.25;;;;;;;;;;6095738;23;20131;-69
2024/02/12 03:05:36;;;;;;;18.85;6.57;;;;;;;;;;6192249;23;20040;-68
2024/02/12 03:08:06;;;;;;;20.83;7.35;;;;;;;;;;6191660;23;20055;-68
2024/02/12 03:10:33;;;;;;;20.55;7.32;;;;;;;;;;6197432;23;20095;-68
2024/02/12 03:13:00;;;;;;;19.70;7.25;;;;;;;;;;6174638;23;20131;-69
2024/02/12 03:15:28;;;;;;;25.15;7.70;;;;;;;;;;6192337;23;20024;-68
2024/02/12 03:17:59;;;;;;;20.90;7.70;;;;;;;;;;6194438;23;20087;-69
2024/02/12 03:20:26;;;;;;;25.70;8.07;;;;;;;;;;6194993;23;20028;-69
2024/02/12 03:22:53;;;;;;;22.20;8.55;;;;;;;;;;6172411;23;20033;-69
2024/02/12 03:25:20;;;;;;;23.63;7.60;;;;;;;;;;6188310;23;20071;-68
2024/02/12 03:27:47;;;;;;;23.15;8.68;;;;;;;;;;6194535;23;20055;-68
2024/02/12 03:30:15;;;;;;;17.15;7.05;;;;;;;;;;6195781;23;20024;-70
2024/02/12 03:32:44;;;;;;;20.60;7.47;;;;;;;;;;6175537;23;20310;-70
2024/02/12 03:35:14;;;;;;;19.27;7.38;;;;;;;;;;6188041;23;20031;-70
2024/02/12 03:37:42;;;;;;;19.33;7.85;;;;;;;;;;6189438;23;20044;-71
2024/02/12 03:40:12;;;;;;;20.42;7.63;;;;;;;;;;6194614;23;20025;-70
2024/02/12 03:42:39;;;;;;;27.35;8.07;;;;;;;;;;6153609;23;20020;-70
2024/02/12 03:45:07;;;;;;;18.98;7.57;;;;;;;;;;6189687;23;20099;-71
2024/02/12 03:47:39;;;;;;;17.20;7.22;;;;;;;;;;6189846;23;20648;-70
2024/02/12 04:01:07;;;;;;;21.10;7.93;;;;;;;;;;6186873;23;20036;-71
2024/02/12 04:03:34;;;;;;;17.63;7.30;;;;;;;;;;6192428;22;20888;-71
2024/02/12 04:06:04;;;;;;;22.85;6.95;;;;;;;;;;6196172;23;20020;-70
2024/02/12 04:08:32;;;;;;;19.65;8.07;;;;;;;;;;6196233;23;20021;-68
2024/02/12 04:10:59;;;;;;;16.35;6.50;;;;;;;;;;6193315;23;20024;-68
2024/02/12 04:13:26;;;;;;;25.83;8.32;;;;;;;;;;6191634;23;20182;-70
2024/02/12 04:15:54;;;;;;;27.83;7.88;;;;;;;;;;6199166;23;20035;-69
2024/02/12 04:18:24;;;;;;;22.95;8.35;;;;;;;;;;6196854;23;20055;-69
2024/02/12 04:20:51;;;;;;;20.58;8.07;;;;;;;;;;6172365;23;20167;-70
2024/02/12 04:23:19;;;;;;;20.25;7.93;;;;;;;;;;6172600;23;20021;-69
2024/02/12 04:25:50;;;;;;;19.70;7.87;;;;;;;;;;6199289;23;20024;-69
2024/02/12 04:28:18;;;;;;;22.88;8.20;;;;;;;;;;6197854;22;20027;-69
2024/02/12 04:30:47;;;;;;;19.85;7.53;;;;;;;;;;6198004;23;20021;-69
2024/02/12 04:33:14;;;;;;;20.67;7.70;;;;;;;;;;6186611;23;20079;-69
2024/02/12 04:35:45;;;;;;;21.13;8.30;;;;;;;;;;6223043;23;20154;-69
2024/02/12 04:38:14;;;;;;;27.35;7.75;;;;;;;;;;6194673;23;20020;-69
2024/02/12 04:40:40;;;;;;;18.98;8.25;;;;;;;;;;6196134;23;20114;-70
2024/02/12 04:43:11;;;;;;;20.98;7.78;;;;;;;;;;6136368;23;20028;-69
2024/02/12 04:45:38;;;;;;;19.63;6.93;;;;;;;;;;6189003;23;20027;-69
2024/02/12 04:48:12;;;;;;;21.33;8.32;;;;;;;;;;6196783;23;20108;-70
2024/02/12 04:50:39;;;;;;;23.35;8.23;;;;;;;;;;6194286;23;20020;-69
2024/02/12 04:53:07;;;;;;;23.60;7.22;;;;;;;;;;6160696;23;20556;-68
2024/02/12 04:55:34;;;;;;;21.87;8.00;;;;;;;;;;6198251;23;20051;-68
2024/02/12 04:58:01;;;;;;;20.42;7.22;;;;;;;;;;6193808;23;20026;-68
2024/02/12 05:00:30;;;;;;;20.45;7.45;;;;;;;;;;6196215;23;20024;-68
2024/02/12 05:02:58;;;;;;;21.92;7.72;;;;;;;;;;6142521;23;20016;-68
2024/02/12 05:05:26;;;;;;;18.55;7.13;;;;;;;;;;6189550;23;20030;-69
2024/02/12 05:07:55;;;;;;;20.63;7.60;;;;;;;;;;6193345;23;20024;-68
2024/02/12 05:10:22;;;;;;;22.85;8.15;;;;;;;;;;6191862;23;20052;-69
2024/02/12 05:12:50;;;;;;;23.63;7.78;;;;;;;;;;6176339;23;20020;-69
2024/02/12 05:15:19;;;;;;;19.88;7.82;;;;;;;;;;6212787;23;20020;-69
2024/02/12 05:17:55;;;;;;;25.38;8.68;;;;;;;;;;6190571;23;20082;-69
2024/02/12 05:23:09;;;;;;;18.50;7.32;;;;;;;;;;6186557;23;21434;-69
2024/02/12 05:25:39;;;;;;;21.67;7.32;;;;;;;;;;6191054;22;20103;-69
2024/02/12 05:28:05;;;;;;;21.30;8.43;;;;;;;;;;6192635;23;20056;-69
2024/02/12 05:30:32;;;;;;;20.10;8.00;;;;;;;;;;6192762;23;20048;-69
2024/02/12 05:33:01;;;;;;;21.38;8.50;;;;;;;;;;6160546;23;20024;-69
2024/02/12 05:35:29;;;;;;;23.60;8.15;;;;;;;;;;6186798;23;20031;-69
2024/02/12 05:37:56;;;;;;;25.58;9.02;;;;;;;;;;6194108;23;20020;-68
2024/02/12 05:40:23;;;;;;;25.70;8.75;;;;;;;;;;6196843;23;20028;-69
2024/02/12 05:42:50;;;;;;;19.63;7.95;;;;;;;;;;6176447;23;20106;-68
2024/02/12 05:45:18;;;;;;;20.98;7.85;;;;;;;;;;6188014;23;20032;-68
2024/02/12 05:47:48;;;;;;;20.60;7.82;;;;;;;;;;6197739;23;20017;-70
2024/02/12 05:50:17;;;;;;;22.50;8.48;;;;;;;;;;6198087;23;20012;-69
2024/02/12 05:52:44;;;;;;;20.38;7.70;;;;;;;;;;6188536;23;20020;-69
2024/02/12 05:55:19;;;;;;;26.85;8.32;;;;;;;;;;6189377;23;20027;-70
2024/02/12 05:57:46;;;;;;;21.90;8.60;;;;;;;;;;6191563;23;20112;-70
2024/02/12 06:00:13;;;;;;;21.27;8.55;;;;;;;;;;6196636;22;20071;-69
2024/02/12 06:02:40;;;;;;;27.10;9.60;;;;;;;;;;6218384;23;20024;-69
2024/02/12 06:05:15;;;;;;;24.15;9.30;;;;;;;;;;6194401;23;20086;-70
2024/02/12 06:07:43;;;;;;;30.77;10.40;;;;;;;;;;6191555;22;20028;-69
2024/02/12 06:10:13;;;;;;;26.73;8.88;;;;;;;;;;6190912;23;20100;-69
2024/02/12 06:12:40;;;;;;;24.33;8.77;;;;;;;;;;6106851;23;20025;-69
2024/02/12 06:15:13;;;;;;;20.70;8.35;;;;;;;;;;6209277;23;20067;-69
2024/02/12 06:17:40;;;;;;;22.15;8.63;;;;;;;;;;6189620;23;20032;-68
2024/02/12 06:20:11;;;;;;;22.85;8.50;;;;;;;;;;6191451;23;20058;-68
2024/02/12 06:22:37;;;;;;;25.73;7.82;;;;;;;;;;6056335;23;20026;-68
2024/02/12 06:25:09;;;;;;;32.88;9.35;;;;;;;;;;6174744;23;20056;-68
2024/02/12 06:27:36;;;;;;;22.85;9.05;;;;;;;;;;6185115;23;20024;-69
2024/02/12 06:30:03;;;;;;;23.88;8.95;;;;;;;;;;6192066;23;20102;-69
2024/02/12 06:32:32;;;;;;;20.25;7.55;;;;;;;;;;6136046;23;20032;-68
2024/02/12 06:37:46;;;;;;;23.08;7.90;;;;;;;;;;6191036;23;20144;-69
2024/02/12 06:40:15;;;;;;;27.08;9.90;;;;;;;;;;6196570;23;20071;-69
2024/02/12 06:42:44;;;;;;;37.95;13.27;;;;;;;;;;6156427;23;20024;-69
2024/02/12 06:45:16;;;;;;;27.02;9.43;;;;;;;;;;6188156;22;20097;-69
2024/02/12 06:47:43;;;;;;;22.27;7.43;;;;;;;;;;6193901;23;20123;-67
2024/02/12 06:50:12;;;;;;;19.92;7.43;;;;;;;;;;6197311;23;20103;-68
2024/02/12 06:52:41;;;;;;;22.55;7.90;;;;;;;;;;6109963;23;20029;-69
2024/02/12 06:55:14;;;;;;;17.83;6.82;;;;;;;;;;6180779;23;20056;-69
2024/02/12 06:57:44;;;;;;;19.80;6.93;;;;;;;;;;6221059;23;20024;-69
2024/02/12 07:00:17;;;;;;;21.88;9.18;;;;;;;;;;6195728;23;20024;-69
2024/02/12 07:02:44;;;;;;;24.92;8.93;;;;;;;;;;6089582;23;20080;-69
2024/02/12 07:05:17;;;;;;;25.45;9.10;;;;;;;;;;6186736;23;20034;-69
2024/02/12 07:07:45;;;;;;;34.17;9.38;;;;;;;;;;6197909;23;20055;-69
2024/02/12 07:10:12;;;;;;;19.30;7.57;;;;;;;;;;6197911;23;20104;-69
2024/02/12 07:12:39;;;;;;;20.17;8.07;;;;;;;;;;6189183;23;20083;-68
2024/02/12 07:15:09;;;;;;;17.95;6.65;;;;;;;;;;6194198;23;20048;-69
2024/02/12 07:17:36;;;;;;;24.52;7.75;;;;;;;;;;6191190;23;20116;-69
2024/02/12 07:20:16;;;;;;;19.08;7.57;;;;;;;;;;6195333;23;20033;-69
2024/02/12 07:22:43;;;;;;;16.65;6.88;;;;;;;;;;6188374;23;20017;-69
2024/02/12 07:25:14;;;;;;;17.52;6.03;;;;;;;;;;6191671;23;20071;-70
2024/02/12 07:27:41;;;;;;;19.98;7.85;;;;;;;;;;6198108;23;20098;-69
2024/02/12 07:30:10;;;;;;;20.25;6.78;;;;;;;;;;6199148;23;20215;-68
2024/02/12 07:32:37;;;;;;;19.38;8.18;;;;;;;;;;6191003;23;20024;-69
2024/02/12 07:35:08;;;;;;;23.23;7.38;;;;;;;;;;6196985;23;20024;-68
2024/02/12 07:37:35;;;;;;;19.73;7.25;;;;;;;;;;6201287;23;20032;-68
2024/02/12 07:40:07;;;;;;;20.38;7.53;;;;;;;;;;6199670;23;20047;-69
2024/02/12 07:42:35;;;;;;;19.02;7.50;;;;;;;;;;6167288;23;20249;-69
2024/02/12 07:45:13;;;;;;;16.40;6.75;;;;;;;;;;6198926;23;20020;-68
2024/02/12 07:47:41;;;;;;;18.30;7.38;;;;;;;;;;6201516;23;20024;-69
2024/02/12 07:50:09;;;;;;;16.92;6.95;;;;;;;;;;6197133;23;20034;-69
2024/02/12 07:52:36;;;;;;;19.40;7.03;;;;;;;;;;6151584;23;20096;-69
2024/02/12 07:55:12;;;;;;;23.27;7.72;;;;;;;;;;6188002;23;20028;-68
2024/02/12 07:57:41;;;;;;;21.58;7.75;;;;;;;;;;6195203;23;20021;-68
2024/02/12 08:00:14;;;;;;;;;;;;;;;;;;6226539;23;20048;-68
2024/02/12 08:02:43;;;;;;;16.02;5.78;;;;;;;;;;6211296;22;19995;-69
2024/02/12 08:05:14;;;;;;;19.02;7.13;;;;;;;;;;6195882;23;20051;-69
2024/02/12 08:07:41;;;;;;;19.27;7.90;;;;;;;;;;6190924;23;20024;-69
2024/02/12 08:10:09;;;;;;;21.88;7.60;;;;;;;;;;6197128;23;20031;-68
2024/02/12 08:12:36;;;;;;;22.02;8.27;;;;;;;;;;6154193;23;20044;-69
2024/02/12 08:15:14;;;;;;;17.95;6.95;;;;;;;;;;6186209;23;20225;-70
2024/02/12 08:17:45;;;;;;;26.00;8.70;;;;;;;;;;6193670;23;20134;-68
2024/02/12 08:20:12;;;;;;;;;;;;;;;;;;6197993;23;20043;-69
2024/02/12 08:22:42;;;;;;;17.98;7.55;;;;;;;;;;6120595;23;19990;-69
2024/02/12 08:25:14;;;;;;;21.25;7.72;;;;;;;;;;6182358;23;20104;-69
2024/02/12 08:27:41;;;;;;;25.02;8.45;;;;;;;;;;6195805;23;20111;-68
2024/02/12 08:30:11;;;;;;;19.95;8.43;;;;;;;;;;6195642;23;20028;-68
2024/02/12 08:32:40;;;;;;;22.90;8.75;;;;;;;;;;6166134;23;20188;-68
2024/02/12 08:35:16;;;;;;;26.10;8.77;;;;;;;;;;6192640;23;20067;-69
2024/02/12 08:37:43;;;;;;;21.65;8.05;;;;;;;;;;6199938;23;20032;-68
2024/02/12 08:40:11;;;;;;;20.15;8.20;;;;;;;;;;6201487;23;20039;-69
2024/02/12 08:42:41;;;;;;;25.63;9.02;;;;;;;;;;6143050;23;20065;-67
2024/02/12 08:45:11;;;;;;;29.73;11.65;;;;;;;;;;6184832;23;20063;-68
2024/02/12 08:47:42;;;;;;;25.77;9.65;;;;;;;;;;6200095;23;20032;-69
2024/02/12 08:50:10;;;;;;;21.50;9.00;;;;;;;;;;6196305;23;20111;-67
2024/02/12 08:52:41;;;;;;;22.27;8.60;;;;;;;;;;6164818;23;20068;-68
2024/02/12 08:55:10;;;;;;;28.90;9.75;;;;;;;;;;6187081;23;20164;-69
2024/02/12 08:57:39;;;;;;;24.98;9.48;;;;;;;;;;6198170;23;20028;-68
2024/02/12 09:00:07;;;;;;;;;;;;;;;;;;6197355;23;20024;-67
2024/02/12 09:02:34;;;;;;;25.80;10.07;;;;;;;;;;6152846;23;19915;-67
2024/02/12 09:05:10;;;;;;;24.52;8.68;;;;;;;;;;6185754;23;20106;-67
2024/02/12 09:07:37;;;;;;;19.95;8.82;;;;;;;;;;6195146;23;20025;-67
2024/02/12 09:10:06;;;;;;;28.05;10.63;;;;;;;;;;6197590;23;20031;-67
2024/02/12 09:12:37;;;;;;;29.88;11.20;;;;;;;;;;6161922;23;20104;-67
2024/02/12 09:15:08;;;;;;;24.20;8.05;;;;;;;;;;6194291;23;20021;-67
2024/02/12 09:17:38;;;;;;;21.40;8.35;;;;;;;;;;6195754;23;20163;-67
2024/02/12 09:20:07;;;;;;;32.05;10.60;;;;;;;;;;6197612;23;20032;-67
2024/02/12 09:22:35;;;;;;;37.22;10.38;;;;;;;;;;6174366;23;20021;-70
2024/02/12 09:25:03;;;;;;;24.25;10.23;;;;;;;;;;6197993;23;20021;-67
2024/02/12 09:27:30;;;;;;;27.25;8.80;;;;;;;;;;6189637;23;20056;-68
2024/02/12 09:29:57;;;;;;;24.92;9.82;;;;;;;;;;6197664;23;20025;-68
2024/02/12 09:32:24;;;;;;;26.52;9.60;;;;;;;;;;6110936;23;20025;-67
2024/02/12 09:34:51;;;;;;;25.05;9.73;;;;;;;;;;6166772;23;20024;-67
2024/02/12 09:37:19;;;;;;;28.67;10.13;;;;;;;;;;6192565;22;20024;-67
2024/02/12 09:39:46;;;;;;;23.45;9.48;;;;;;;;;;6196084;23;20024;-67
2024/02/12 09:42:15;;;;;;;27.10;10.77;;;;;;;;;;6191904;23;20142;-67
2024/02/12 09:44:47;;;;;;;24.20;9.85;;;;;;;;;;6195405;23;20036;-68
2024/02/12 09:47:17;;;;;;;21.60;8.80;;;;;;;;;;6196786;22;20024;-68
2024/02/12 09:49:44;;;;;;;24.85;10.18;;;;;;;;;;6196964;23;20107;-66
2024/02/12 09:52:17;;;;;;;27.73;10.67;;;;;;;;;;6216372;22;20103;-68
2024/02/12 09:54:46;;;;;;;23.67;10.10;;;;;;;;;;6195811;23;20078;-66
2024/02/12 09:57:13;;;;;;;25.30;10.90;;;;;;;;;;6191535;23;20111;-68
2024/02/12 09:59:39;;;;;;;27.05;9.77;;;;;;;;;;6197885;22;20182;-67
2024/02/12 10:02:09;;;;;;;23.77;8.77;;;;;;;;;;6161661;23;20094;-67
2024/02/12 10:04:38;;;;;;;20.02;8.77;;;;;;;;;;6177842;23;20079;-68
2024/02/12 10:07:08;;;;;;;23.15;7.90;;;;;;;;;;6195230;23;20024;-67
2024/02/12 10:09:37;;;;;;;17.67;7.18;;;;;;;;;;6196918;23;20519;-66
2024/02/12 10:12:09;;;;;;;17.63;6.88;;;;;;;;;;6191409;23;20117;-67
2024/02/12 10:14:36;;;;;;;18.52;6.90;;;;;;;;;;6194653;23;20031;-67
2024/02/12 10:17:02;;;;;;;16.02;6.55;;;;;;;;;;6173754;23;20107;-67
2024/02/12 10:19:29;;;;;;;17.73;5.97;;;;;;;;;;6187808;22;20071;-67
2024/02/12 10:21:58;;;;;;;18.20;7.13;;;;;;;;;;6193146;23;20028;-67
2024/02/12 10:24:26;;;;;;;19.05;6.35;;;;;;;;;;6200934;23;20117;-67
2024/02/12 10:26:53;;;;;;;14.53;6.60;;;;;;;;;;6196145;23;20025;-68
2024/02/12 10:29:21;;;;;;;15.13;6.45;;;;;;;;;;6191413;23;20025;-67
2024/02/12 10:31:49;;;;;;;18.67;6.80;;;;;;;;;;6217865;23;20028;-69
2024/02/12 10:34:18;;;;;;;17.27;7.13;;;;;;;;;;6199632;23;20035;-68
2024/02/12 10:36:47;;;;;;;20.92;6.95;;;;;;;;;;6199273;23;20024;-66
2024/02/12 10:39:17;;;;;;;15.20;6.13;;;;;;;;;;6185630;23;20024;-68
2024/02/12 10:41:50;;;;;;;17.80;7.90;;;;;;;;;;6193268;23;20036;-67
2024/02/12 10:44:18;;;;;;;19.63;6.25;;;;;;;;;;6197758;23;20111;-68
2024/02/12 10:46:49;;;;;;;16.13;6.20;;;;;;;;;;6200561;23;20028;-67
2024/02/12 10:49:16;;;;;;;20.67;6.50;;;;;;;;;;6192545;23;20113;-68
2024/02/12 10:51:49;;;;;;;18.02;7.03;;;;;;;;;;6149139;23;20116;-68
2024/02/12 10:54:16;;;;;;;15.05;6.30;;;;;;;;;;6144267;23;20094;-69
2024/02/12 10:56:43;;;;;;;14.60;5.72;;;;;;;;;;6195649;23;20021;-69
2024/02/12 10:59:14;;;;;;;15.05;6.00;;;;;;;;;;6189472;23;20051;-69
2024/02/12 11:01:41;;;;;;;19.92;6.95;;;;;;;;;;6193553;23;20095;-69
2024/02/12 11:04:13;;;;;;;20.88;6.65;;;;;;;;;;6214415;22;20047;-69
2024/02/12 11:06:41;;;;;;;10.95;5.07;;;;;;;;;;6194265;23;20059;-68
2024/02/12 11:09:09;;;;;;;12.13;5.25;;;;;;;;;;6192309;23;20082;-67
2024/02/12 11:11:45;;;;;;;15.48;5.28;;;;;;;;;;6190982;23;20036;-67
2024/02/12 11:14:14;;;;;;;10.13;4.45;;;;;;;;;;6148411;23;20025;-67
2024/02/12 11:16:41;;;;;;;9.48;3.60;;;;;;;;;;6220714;23;20028;-68
2024/02/12 11:19:16;;;;;;;9.80;4.38;;;;;;;;;;6193608;23;20032;-67
2024/02/12 11:21:44;;;;;;;12.05;4.38;;;;;;;;;;6196540;23;20024;-67
2024/02/12 11:24:12;;;;;;;11.10;4.20;;;;;;;;;;6175262;23;20029;-67
2024/02/12 11:26:43;;;;;;;12.15;4.15;;;;;;;;;;6193711;23;20071;-67
2024/02/12 11:29:17;;;;;;;10.18;3.83;;;;;;;;;;6221802;23;20096;-66
2024/02/12 11:31:47;;;;;;;10.20;3.83;;;;;;;;;;6191787;23;20032;-67
2024/02/12 11:34:17;;;;;;;12.07;4.57;;;;;;;;;;6191494;23;20024;-66
2024/02/12 11:36:45;;;;;;;9.75;3.85;;;;;;;;;;6192389;23;20091;-67
2024/02/12 11:39:12;;;;;;;8.68;3.40;;;;;;;;;;6189671;22;20024;-68
2024/02/12 11:41:40;;;;;;;11.35;4.50;;;;;;;;;;6197897;23;20032;-67
2024/02/12 11:44:07;;;;;;;14.48;4.15;;;;;;;;;;6182900;23;20040;-66
2024/02/12 11:46:35;;;;;;;7.63;3.55;;;;;;;;;;6199154;23;20034;-67
2024/02/12 11:49:06;;;;;;;9.70;4.07;;;;;;;;;;6198412;23;20028;-67
2024/02/12 11:51:35;;;;;;;13.10;3.83;;;;;;;;;;6174931;23;20165;-66
2024/02/12 11:54:02;;;;;;;10.02;4.03;;;;;;;;;;6176309;23;20025;-67
2024/02/12 11:56:30;;;;;;;8.23;4.07;;;;;;;;;;6199601;23;20020;-67
2024/02/12 11:58:58;;;;;;;9.68;3.85;;;;;;;;;;6193988;22;20025;-67
2024/02/12 12:01:26;;;;;;;10.50;4.25;;;;;;;;;;6188944;22;20024;-67
2024/02/12 12:03:54;;;;;;;;;;;;;;;;;;6173750;23;20107;-68
2024/02/12 12:06:22;;;;;;;9.65;4.00;;;;;;;;;;6221993;23;19985;-67
2024/02/12 12:08:50;;;;;;;9.70;3.85;;;;;;;;;;6198944;23;20035;-67
2024/02/12 12:11:21;;;;;;;11.77;4.47;;;;;;;;;;6184113;23;20020;-68
2024/02/12 12:13:47;;;;;;;12.52;4.18;;;;;;;;;;6134524;23;20024;-67
2024/02/12 12:16:31;;;;;;;16.88;4.45;;;;;;;;;;6199972;23;20028;-68
2024/02/12 12:19:34;;;;;;;9.43;3.67;;;;;;;;;;6203130;23;20101;-67
2024/02/12 12:22:20;;;;;;;11.30;3.65;;;;;;;;;;6189151;23;20028;-69
2024/02/12 12:24:52;;;;;;;11.30;4.25;;;;;;;;;;6200404;23;20123;-69
2024/02/12 12:27:27;;;;;;;10.27;4.07;;;;;;;;;;6193653;23;20025;-69
2024/02/12 12:30:14;;;;;;;12.30;4.20;;;;;;;;;;6201088;23;20025;-68
2024/02/12 12:32:42;;;;;;;13.27;4.38;;;;;;;;;;6195573;23;20086;-69
2024/02/12 12:35:13;;;;;;;11.85;4.53;;;;;;;;;;6189751;23;20024;-68
2024/02/12 12:37:40;;;;;;;11.73;4.50;;;;;;;;;;6192595;23;20056;-67
2024/02/12 12:40:18;;;;;;;12.82;4.65;;;;;;;;;;6195965;23;20048;-68
2024/02/12 12:42:46;;;;;;;;;;;;;;;;;;6183354;23;20030;-67
2024/02/12 12:45:21;;;;;;;10.60;3.08;;;;;;;;;;6193291;22;19920;-67
2024/02/12 12:47:48;;;;;;;10.13;4.40;;;;;;;;;;6196003;23;20063;-68
2024/02/12 12:50:19;;;;;;;9.77;3.90;;;;;;;;;;6194984;23;20025;-69
2024/02/12 12:52:46;;;;;;;9.00;3.10;;;;;;;;;;6134974;23;20138;-69
2024/02/12 12:55:15;;;;;;;12.90;3.15;;;;;;;;;;6199676;23;20103;-69
2024/02/12 12:57:43;;;;;;;7.22;2.50;;;;;;;;;;6195468;23;20078;-68
2024/02/12 13:00:18;;;;;;;4.78;1.75;;;;;;;;;;6222961;22;20029;-69
2024/02/12 13:02:45;;;;;;;2.97;1.60;;;;;;;;;;6141711;23;20031;-69
2024/02/12 13:05:25;;;;;;;5.47;2.00;;;;;;;;;;6183881;23;20025;-69
2024/02/12 13:07:52;;;;;;;3.70;1.40;;;;;;;;;;6194419;23;20032;-69
2024/02/12 13:10:23;;;;;;;5.80;2.00;;;;;;;;;;6197004;23;20024;-69
2024/02/12 13:12:50;;;;;;;3.72;1.80;;;;;;;;;;6163265;23;20039;-70
2024/02/12 13:15:18;;;;;;;7.57;2.10;;;;;;;;;;6188075;23;20028;-69
2024/02/12 13:17:50;;;;;;;6.65;2.25;;;;;;;;;;6195948;23;20102;-69
2024/02/12 13:20:24;;;;;;;7.93;1.90;;;;;;;;;;6199177;23;20024;-69
2024/02/12 13:22:53;;;;;;;10.93;2.10;;;;;;;;;;6165420;23;20032;-71
2024/02/12 13:25:26;;;;;;;8.43;1.80;;;;;;;;;;6191878;23;20031;-68
2024/02/12 13:27:55;;;;;;;6.22;1.75;;;;;;;;;;6195034;23;20080;-69
2024/02/12 13:30:21;;;;;;;3.92;1.30;;;;;;;;;;6197319;23;20059;-69
2024/02/12 13:32:52;;;;;;;3.80;1.65;;;;;;;;;;6187879;23;20028;-70
2024/02/12 13:35:19;;;;;;;4.60;1.20;;;;;;;;;;6196845;23;20021;-69
2024/02/12 13:37:45;;;;;;;3.10;1.05;;;;;;;;;;6199933;23;20035;-67
2024/02/12 13:40:17;;;;;;;2.50;1.17;;;;;;;;;;6200915;23;20020;-69
2024/02/12 13:42:50;;;;;;;5.00;0.82;;;;;;;;;;6156190;23;20024;-71
2024/02/12 13:45:19;;;;;;;3.05;0.88;;;;;;;;;;6179629;23;20032;-69
2024/02/12 13:47:45;;;;;;;2.90;0.90;;;;;;;;;;6198018;23;20032;-68
2024/02/12 13:50:14;;;;;;;2.10;0.70;;;;;;;;;;6200911;23;20102;-69
2024/02/12 13:52:42;;;;;;;3.53;0.90;;;;;;;;;;6170517;23;20026;-68
2024/02/12 13:55:13;;;;;;;;;;;;;;;;;;6197256;23;20028;-68
2024/02/12 13:57:41;;;;;;;1.52;1.05;;;;;;;;;;6221022;22;19919;-70
2024/02/12 14:00:17;;;;;;;2.00;0.97;;;;;;;;;;6199498;23;20076;-68
2024/02/12 14:02:47;;;;;;;3.42;0.93;;;;;;;;;;6131298;23;20283;-68
2024/02/12 14:05:17;;;;;;;2.58;0.80;;;;;;;;;;6166952;23;20074;-68
2024/02/12 14:07:47;;;;;;;3.47;0.95;;;;;;;;;;6199257;22;20020;-68
2024/02/12 14:10:18;;;;;;;1.92;0.80;;;;;;;;;;6224178;23;20025;-69
2024/02/12 14:12:47;;;;;;;1.50;0.85;;;;;;;;;;6167637;23;20024;-68
2024/02/12 14:15:18;;;;;;;3.28;0.80;;;;;;;;;;6193957;23;20036;-68
2024/02/12 14:17:46;;;;;;;1.90;0.73;;;;;;;;;;6198960;23;20028;-68
2024/02/12 14:20:17;;;;;;;4.00;1.27;;;;;;;;;;6192455;23;20091;-67
2024/02/12 14:22:45;;;;;;;4.00;1.08;;;;;;;;;;6215545;22;20031;-67
2024/02/12 14:25:15;;;;;;;2.83;1.10;;;;;;;;;;6193300;23;20087;-68
2024/02/12 14:27:43;;;;;;;5.13;1.02;;;;;;;;;;6198772;23;20122;-68
2024/02/12 14:30:11;;;;;;;4.45;1.08;;;;;;;;;;6196032;23;20110;-67
2024/02/12 14:32:40;;;;;;;4.32;0.93;;;;;;;;;;6162756;23;20036;-67
2024/02/12 14:35:09;;;;;;;2.72;1.08;;;;;;;;;;6191996;23;20120;-68
2024/02/12 14:37:37;;;;;;;1.23;0.68;;;;;;;;;;6195358;23;20020;-68
2024/02/12 14:40:13;;;;;;;3.67;0.93;;;;;;;;;;6198774;23;20036;-68
2024/02/12 14:42:41;;;;;;;4.22;0.85;;;;;;;;;;6174189;23;20025;-69
2024/02/12 14:45:11;;;;;;;1.40;0.80;;;;;;;;;;6195948;23;20025;-69
2024/02/12 14:47:38;;;;;;;3.47;1.20;;;;;;;;;;6194981;23;20028;-70
2024/02/12 14:50:12;;;;;;;6.18;1.77;;;;;;;;;;6201098;23;20012;-67
2024/02/12 14:52:38;;;;;;;4.57;1.50;;;;;;;;;;6191857;22;20025;-68
2024/02/12 14:55:12;;;;;;;8.50;2.63;;;;;;;;;;6200876;23;20096;-68
2024/02/12 14:57:40;;;;;;;6.07;0.90;;;;;;;;;;6195916;23;20031;-67
2024/02/12 15:00:13;;;;;;;;;;;;;;;;;;6196581;23;20025;-66